sensor_id;sensor_type;location;lat;lon;timestamp;pressure;altitude;pressure_sealevel;temperature;humidity
61026;BME280;46911;32.650;-16.902;2024-01-25T00:00:16;102719.41;;;15.20;38.19
61026;BME280;46911;32.650;-16.902;2024-01-25T00:02:17;102716.09;;;15.15;38.28
61026;BME280;46911;32.650;-16.902;2024-01-25T00:04:24;102719.41;;;15.20;36.51
61026;BME280;46911;32.650;-16.902;2024-01-25T00:06:27;102709.50;;;15.36;36.61
61026;BME280;46911;32.650;-16.902;2024-01-25T00:08:31;102727.47;;;15.52;36.59
61026;BME280;46911;32.650;-16.902;2024-01-25T00:10:32;102690.53;;;15.23;36.50
61026;BME280;46911;32.650;-16.902;2024-01-25T00:12:35;102728.94;;;15.42;37.03
61026;BME280;46911;32.650;-16.902;2024-01-25T00:14:36;102722.59;;;15.27;37.05
61026;BME280;46911;32.650;-16.902;2024-01-25T00:16:42;102716.97;;;15.15;37.13
61026;BME280;46911;32.650;-16.902;2024-01-25T00:18:48;102706.03;;;15.02;37.04
61026;BME280;46911;32.650;-16.902;2024-01-25T00:20:51;102731.44;;;15.13;37.29
61026;BME280;46911;32.650;-16.902;2024-01-25T00:22:52;102727.19;;;15.09;37.29
61026;BME280;46911;32.650;-16.902;2024-01-25T00:25:00;102708.41;;;14.91;37.59
61026;BME280;46911;32.650;-16.902;2024-01-25T00:27:03;102721.53;;;14.97;37.53
61026;BME280;46911;32.650;-16.902;2024-01-25T00:29:06;102720.75;;;14.95;37.49
61026;BME280;46911;32.650;-16.902;2024-01-25T00:31:10;102723.59;;;14.92;37.45
61026;BME280;46911;32.650;-16.902;2024-01-25T00:33:11;102698.69;;;14.72;37.77
61026;BME280;46911;32.650;-16.902;2024-01-25T00:35:20;102696.25;;;14.68;38.12
61026;BME280;46911;32.650;-16.902;2024-01-25T00:37:24;102721.56;;;14.80;38.50
61026;BME280;46911;32.650;-16.902;2024-01-25T00:39:25;102721.22;;;14.70;38.67
61026;BME280;46911;32.650;-16.902;2024-01-25T00:41:32;102721.28;;;14.68;38.65
61026;BME280;46911;32.650;-16.902;2024-01-25T00:43:33;102723.19;;;14.66;38.52
61026;BME280;46911;32.650;-16.902;2024-01-25T00:45:39;102721.13;;;14.71;37.37
61026;BME280;46911;32.650;-16.902;2024-01-25T00:47:40;102706.91;;;14.69;36.99
61026;BME280;46911;32.650;-16.902;2024-01-25T00:49:41;102700.25;;;14.77;37.02
61026;BME280;46911;32.650;-16.902;2024-01-25T00:51:47;102717.09;;;14.96;37.58
61026;BME280;46911;32.650;-16.902;2024-01-25T00:53:48;102698.97;;;14.84;37.52
61026;BME280;46911;32.650;-16.902;2024-01-25T00:55:49;102699.75;;;14.86;36.61
61026;BME280;46911;32.650;-16.902;2024-01-25T00:57:50;102699.75;;;14.86;36.57
61026;BME280;46911;32.650;-16.902;2024-01-25T00:59:57;102711.50;;;15.01;36.08
61026;BME280;46911;32.650;-16.902;2024-01-25T01:02:04;102695.06;;;14.89;36.29
61026;BME280;46911;32.650;-16.902;2024-01-25T01:04:06;102719.88;;;14.95;36.61
61026;BME280;46911;32.650;-16.902;2024-01-25T01:06:16;102696.38;;;14.82;36.74
61026;BME280;46911;32.650;-16.902;2024-01-25T01:08:22;102713.78;;;14.91;36.69
61026;BME280;46911;32.650;-16.902;2024-01-25T01:10:25;102707.47;;;14.92;36.55
61026;BME280;46911;32.650;-16.902;2024-01-25T01:12:30;102692.88;;;14.80;36.64
61026;BME280;46911;32.650;-16.902;2024-01-25T01:14:31;102711.09;;;14.91;36.62
61026;BME280;46911;32.650;-16.902;2024-01-25T01:16:32;102693.91;;;14.78;36.63
61026;BME280;46911;32.650;-16.902;2024-01-25T01:18:36;102688.63;;;14.76;37.05
61026;BME280;46911;32.650;-16.902;2024-01-25T01:20:38;102698.78;;;14.87;36.81
61026;BME280;46911;32.650;-16.902;2024-01-25T01:22:39;102695.56;;;14.80;36.64
61026;BME280;46911;32.650;-16.902;2024-01-25T01:24:43;102678.91;;;14.73;37.14
61026;BME280;46911;32.650;-16.902;2024-01-25T01:26:47;102693.28;;;14.90;36.78
61026;BME280;46911;32.650;-16.902;2024-01-25T01:28:51;102681.00;;;14.84;36.25
61026;BME280;46911;32.650;-16.902;2024-01-25T01:30:57;102694.66;;;14.97;36.30
61026;BME280;46911;32.650;-16.902;2024-01-25T01:33:01;102696.22;;;15.01;36.45
61026;BME280;46911;32.650;-16.902;2024-01-25T01:35:04;102682.03;;;14.99;36.89
61026;BME280;46911;32.650;-16.902;2024-01-25T01:37:07;102679.31;;;14.99;36.65
61026;BME280;46911;32.650;-16.902;2024-01-25T01:39:14;102665.59;;;14.88;36.67
61026;BME280;46911;32.650;-16.902;2024-01-25T01:41:17;102676.69;;;14.98;36.34
61026;BME280;46911;32.650;-16.902;2024-01-25T01:43:19;102670.56;;;14.96;36.61
61026;BME280;46911;32.650;-16.902;2024-01-25T01:45:23;102669.84;;;14.92;36.74
61026;BME280;46911;32.650;-16.902;2024-01-25T01:47:28;102672.72;;;14.89;36.76
61026;BME280;46911;32.650;-16.902;2024-01-25T01:49:31;102670.03;;;14.89;36.56
61026;BME280;46911;32.650;-16.902;2024-01-25T01:51:40;102659.47;;;14.86;36.53
61026;BME280;46911;32.650;-16.902;2024-01-25T01:53:42;102657.63;;;14.86;36.96
61026;BME280;46911;32.650;-16.902;2024-01-25T01:55:42;102633.53;;;14.69;37.33
61026;BME280;46911;32.650;-16.902;2024-01-25T01:57:48;102638.97;;;14.67;37.17
61026;BME280;46911;32.650;-16.902;2024-01-25T01:59:54;102659.00;;;14.78;36.97
61026;BME280;46911;32.650;-16.902;2024-01-25T02:01:55;102635.25;;;14.70;37.05
61026;BME280;46911;32.650;-16.902;2024-01-25T02:03:56;102634.38;;;14.69;37.14
61026;BME280;46911;32.650;-16.902;2024-01-25T02:05:57;102647.06;;;14.83;37.19
61026;BME280;46911;32.650;-16.902;2024-01-25T02:08:06;102622.69;;;14.70;36.96
61026;BME280;46911;32.650;-16.902;2024-01-25T02:10:08;102625.19;;;14.73;36.87
61026;BME280;46911;32.650;-16.902;2024-01-25T02:12:09;102625.03;;;14.77;36.60
61026;BME280;46911;32.650;-16.902;2024-01-25T02:14:12;102615.06;;;14.79;36.50
61026;BME280;46911;32.650;-16.902;2024-01-25T02:16:18;102625.38;;;14.86;36.66
61026;BME280;46911;32.650;-16.902;2024-01-25T02:18:20;102604.31;;;14.79;36.66
61026;BME280;46911;32.650;-16.902;2024-01-25T02:20:24;102607.53;;;14.85;36.67
61026;BME280;46911;32.650;-16.902;2024-01-25T02:22:28;102612.75;;;14.88;36.46
61026;BME280;46911;32.650;-16.902;2024-01-25T02:24:28;102625.31;;;14.88;36.53
61026;BME280;46911;32.650;-16.902;2024-01-25T02:26:29;102633.13;;;14.93;36.55
61026;BME280;46911;32.650;-16.902;2024-01-25T02:28:33;102615.25;;;14.76;36.81
61026;BME280;46911;32.650;-16.902;2024-01-25T02:30:35;102637.97;;;14.86;36.99
61026;BME280;46911;32.650;-16.902;2024-01-25T02:32:36;102612.13;;;14.67;37.16
61026;BME280;46911;32.650;-16.902;2024-01-25T02:34:42;102611.16;;;14.68;37.09
61026;BME280;46911;32.650;-16.902;2024-01-25T02:36:43;102616.38;;;14.71;37.24
61026;BME280;46911;32.650;-16.902;2024-01-25T02:38:46;102607.88;;;14.63;37.40
61026;BME280;46911;32.650;-16.902;2024-01-25T02:40:49;102612.31;;;14.63;37.41
61026;BME280;46911;32.650;-16.902;2024-01-25T02:42:52;102635.53;;;14.81;37.27
61026;BME280;46911;32.650;-16.902;2024-01-25T02:44:53;102620.44;;;14.79;37.52
61026;BME280;46911;32.650;-16.902;2024-01-25T02:46:57;102623.66;;;14.85;37.78
61026;BME280;46911;32.650;-16.902;2024-01-25T02:49:00;102627.75;;;14.93;37.83
61026;BME280;46911;32.650;-16.902;2024-01-25T02:51:03;102608.56;;;14.83;37.52
61026;BME280;46911;32.650;-16.902;2024-01-25T02:53:07;102608.66;;;14.81;37.42
61026;BME280;46911;32.650;-16.902;2024-01-25T02:55:11;102603.69;;;14.73;37.12
61026;BME280;46911;32.650;-16.902;2024-01-25T02:57:14;102623.56;;;14.87;37.40
61026;BME280;46911;32.650;-16.902;2024-01-25T02:59:20;102633.44;;;14.86;37.57
61026;BME280;46911;32.650;-16.902;2024-01-25T03:01:21;102635.28;;;14.86;37.52
61026;BME280;46911;32.650;-16.902;2024-01-25T03:03:24;102610.56;;;14.63;37.63
61026;BME280;46911;32.650;-16.902;2024-01-25T03:05:25;102635.94;;;14.73;37.64
61026;BME280;46911;32.650;-16.902;2024-01-25T03:07:26;102636.81;;;14.74;38.20
61026;BME280;46911;32.650;-16.902;2024-01-25T03:09:29;102622.78;;;14.69;38.49
61026;BME280;46911;32.650;-16.902;2024-01-25T03:11:30;102644.25;;;14.69;38.61
61026;BME280;46911;32.650;-16.902;2024-01-25T03:13:32;102637.44;;;14.62;39.06
61026;BME280;46911;32.650;-16.902;2024-01-25T03:15:35;102643.88;;;14.59;39.28
61026;BME280;46911;32.650;-16.902;2024-01-25T03:17:36;102652.00;;;14.57;39.01
61026;BME280;46911;32.650;-16.902;2024-01-25T03:19:39;102626.69;;;14.46;38.47
61026;BME280;46911;32.650;-16.902;2024-01-25T03:21:40;102654.53;;;14.61;38.44
61026;BME280;46911;32.650;-16.902;2024-01-25T03:23:41;102632.06;;;14.46;38.41
61026;BME280;46911;32.650;-16.902;2024-01-25T03:25:42;102654.63;;;14.59;38.36
61026;BME280;46911;32.650;-16.902;2024-01-25T03:27:47;102659.97;;;14.59;38.53
61026;BME280;46911;32.650;-16.902;2024-01-25T03:29:48;102656.31;;;14.60;38.62
61026;BME280;46911;32.650;-16.902;2024-01-25T03:31:49;102629.97;;;14.51;38.98
61026;BME280;46911;32.650;-16.902;2024-01-25T03:33:55;102664.94;;;14.67;38.78
61026;BME280;46911;32.650;-16.902;2024-01-25T03:36:05;102653.56;;;14.62;38.60
61026;BME280;46911;32.650;-16.902;2024-01-25T03:38:11;102659.00;;;14.60;38.58
61026;BME280;46911;32.650;-16.902;2024-01-25T03:40:16;102658.91;;;14.63;38.34
61026;BME280;46911;32.650;-16.902;2024-01-25T03:42:20;102640.78;;;14.49;38.51
61026;BME280;46911;32.650;-16.902;2024-01-25T03:44:21;102628.50;;;14.45;38.26
61026;BME280;46911;32.650;-16.902;2024-01-25T03:46:22;102650.41;;;14.53;38.39
61026;BME280;46911;32.650;-16.902;2024-01-25T03:48:23;102620.06;;;14.35;38.25
61026;BME280;46911;32.650;-16.902;2024-01-25T03:50:24;102615.16;;;14.44;38.09
61026;BME280;46911;32.650;-16.902;2024-01-25T03:52:25;102638.41;;;14.61;37.91
61026;BME280;46911;32.650;-16.902;2024-01-25T03:54:28;102613.72;;;14.54;38.26
61026;BME280;46911;32.650;-16.902;2024-01-25T03:56:34;102603.72;;;14.56;38.70
61026;BME280;46911;32.650;-16.902;2024-01-25T03:58:35;102630.03;;;14.67;38.65
61026;BME280;46911;32.650;-16.902;2024-01-25T04:00:38;102623.63;;;14.69;38.87
61026;BME280;46911;32.650;-16.902;2024-01-25T04:02:42;102596.63;;;14.55;39.09
61026;BME280;46911;32.650;-16.902;2024-01-25T04:04:51;102618.34;;;14.68;39.02
61026;BME280;46911;32.650;-16.902;2024-01-25T04:06:52;102613.25;;;14.63;39.40
61026;BME280;46911;32.650;-16.902;2024-01-25T04:08:53;102615.09;;;14.61;39.36
61026;BME280;46911;32.650;-16.902;2024-01-25T04:11:01;102620.31;;;14.64;39.71
61026;BME280;46911;32.650;-16.902;2024-01-25T04:13:04;102606.84;;;14.66;39.82
61026;BME280;46911;32.650;-16.902;2024-01-25T04:15:10;102591.19;;;14.56;39.23
61026;BME280;46911;32.650;-16.902;2024-01-25T04:17:11;102578.19;;;14.49;39.09
61026;BME280;46911;32.650;-16.902;2024-01-25T04:19:14;102598.97;;;14.61;38.96
61026;BME280;46911;32.650;-16.902;2024-01-25T04:21:15;102571.78;;;14.51;38.81
61026;BME280;46911;32.650;-16.902;2024-01-25T04:23:21;102555.28;;;14.42;38.88
61026;BME280;46911;32.650;-16.902;2024-01-25T04:25:21;102555.91;;;14.47;38.76
61026;BME280;46911;32.650;-16.902;2024-01-25T04:27:25;102578.63;;;14.57;38.99
61026;BME280;46911;32.650;-16.902;2024-01-25T04:29:28;102575.13;;;14.55;39.00
61026;BME280;46911;32.650;-16.902;2024-01-25T04:31:31;102547.41;;;14.38;39.11
61026;BME280;46911;32.650;-16.902;2024-01-25T04:33:38;102541.28;;;14.36;39.23
61026;BME280;46911;32.650;-16.902;2024-01-25T04:35:45;102566.50;;;14.50;39.36
61026;BME280;46911;32.650;-16.902;2024-01-25T04:37:46;102561.28;;;14.47;39.31
61026;BME280;46911;32.650;-16.902;2024-01-25T04:39:47;102531.63;;;14.32;39.45
61026;BME280;46911;32.650;-16.902;2024-01-25T04:41:50;102557.72;;;14.46;39.50
61026;BME280;46911;32.650;-16.902;2024-01-25T04:43:54;102512.25;;;14.27;39.68
61026;BME280;46911;32.650;-16.902;2024-01-25T04:45:57;102546.06;;;14.47;39.19
61026;BME280;46911;32.650;-16.902;2024-01-25T04:48:00;102523.44;;;14.35;38.91
61026;BME280;46911;32.650;-16.902;2024-01-25T04:50:01;102542.34;;;14.50;39.06
61026;BME280;46911;32.650;-16.902;2024-01-25T04:52:02;102509.38;;;14.30;39.29
61026;BME280;46911;32.650;-16.902;2024-01-25T04:54:06;102528.28;;;14.45;39.96
61026;BME280;46911;32.650;-16.902;2024-01-25T04:56:15;102513.53;;;14.36;40.05
61026;BME280;46911;32.650;-16.902;2024-01-25T04:58:16;102502.63;;;14.23;40.74
61026;BME280;46911;32.650;-16.902;2024-01-25T05:00:21;102542.97;;;14.37;41.11
61026;BME280;46911;32.650;-16.902;2024-01-25T05:02:22;102525.38;;;14.16;40.73
61026;BME280;46911;32.650;-16.902;2024-01-25T05:04:28;102535.06;;;14.18;41.12
61026;BME280;46911;32.650;-16.902;2024-01-25T05:06:29;102536.28;;;14.13;41.52
61026;BME280;46911;32.650;-16.902;2024-01-25T05:08:30;102540.41;;;14.02;41.62
61026;BME280;46911;32.650;-16.902;2024-01-25T05:10:33;102538.13;;;13.95;42.06
61026;BME280;46911;32.650;-16.902;2024-01-25T05:12:34;102531.53;;;13.84;42.24
61026;BME280;46911;32.650;-16.902;2024-01-25T05:14:37;102541.47;;;13.82;42.91
61026;BME280;46911;32.650;-16.902;2024-01-25T05:16:45;102536.41;;;13.76;42.90
61026;BME280;46911;32.650;-16.902;2024-01-25T05:18:46;102512.38;;;13.57;43.20
61026;BME280;46911;32.650;-16.902;2024-01-25T05:20:47;102548.41;;;13.69;43.29
61026;BME280;46911;32.650;-16.902;2024-01-25T05:22:50;102517.28;;;13.49;43.59
61026;BME280;46911;32.650;-16.902;2024-01-25T05:24:51;102542.66;;;13.59;43.96
61026;BME280;46911;32.650;-16.902;2024-01-25T05:26:52;102538.56;;;13.52;44.14
61026;BME280;46911;32.650;-16.902;2024-01-25T05:28:55;102508.09;;;13.35;44.51
61026;BME280;46911;32.650;-16.902;2024-01-25T05:30:56;102527.91;;;13.50;44.72
61026;BME280;46911;32.650;-16.902;2024-01-25T05:32:57;102483.50;;;13.27;45.17
61026;BME280;46911;32.650;-16.902;2024-01-25T05:35:00;102494.41;;;13.42;44.65
61026;BME280;46911;32.650;-16.902;2024-01-25T05:37:03;102492.50;;;13.44;44.14
61026;BME280;46911;32.650;-16.902;2024-01-25T05:39:09;102489.75;;;13.45;44.12
61026;BME280;46911;32.650;-16.902;2024-01-25T05:41:10;102514.97;;;13.59;43.85
61026;BME280;46911;32.650;-16.902;2024-01-25T05:43:11;102477.22;;;13.46;44.06
61026;BME280;46911;32.650;-16.902;2024-01-25T05:45:16;102493.44;;;13.60;44.19
61026;BME280;46911;32.650;-16.902;2024-01-25T05:47:24;102472.81;;;13.45;45.13
61026;BME280;46911;32.650;-16.902;2024-01-25T05:49:28;102487.53;;;13.53;44.86
61026;BME280;46911;32.650;-16.902;2024-01-25T05:51:31;102479.91;;;13.46;44.77
61026;BME280;46911;32.650;-16.902;2024-01-25T05:53:37;102491.31;;;13.49;45.02
61026;BME280;46911;32.650;-16.902;2024-01-25T05:55:40;102495.66;;;13.52;44.63
61026;BME280;46911;32.650;-16.902;2024-01-25T05:57:46;102466.81;;;13.39;44.34
61026;BME280;46911;32.650;-16.902;2024-01-25T05:59:47;102470.13;;;13.45;43.53
61026;BME280;46911;32.650;-16.902;2024-01-25T06:01:50;102483.69;;;13.59;43.63
61026;BME280;46911;32.650;-16.902;2024-01-25T06:03:51;102489.28;;;13.54;43.70
61026;BME280;46911;32.650;-16.902;2024-01-25T06:05:55;102471.78;;;13.47;43.51
61026;BME280;46911;32.650;-16.902;2024-01-25T06:07:58;102496.53;;;13.52;43.36
61026;BME280;46911;32.650;-16.902;2024-01-25T06:09:59;102471.41;;;13.37;43.16
61026;BME280;46911;32.650;-16.902;2024-01-25T06:12:00;102465.44;;;13.31;43.16
61026;BME280;46911;32.650;-16.902;2024-01-25T06:14:05;102503.22;;;13.44;43.34
61026;BME280;46911;32.650;-16.902;2024-01-25T06:16:08;102487.84;;;13.30;43.43
61026;BME280;46911;32.650;-16.902;2024-01-25T06:18:09;102501.25;;;13.30;43.53
61026;BME280;46911;32.650;-16.902;2024-01-25T06:20:13;102503.19;;;13.26;43.65
61026;BME280;46911;32.650;-16.902;2024-01-25T06:22:14;102487.84;;;13.12;42.94
61026;BME280;46911;32.650;-16.902;2024-01-25T06:24:17;102517.53;;;13.25;42.75
61026;BME280;46911;32.650;-16.902;2024-01-25T06:26:21;102512.81;;;13.30;42.11
61026;BME280;46911;32.650;-16.902;2024-01-25T06:28:22;102483.97;;;13.35;43.05
61026;BME280;46911;32.650;-16.902;2024-01-25T06:30:23;102496.38;;;13.38;42.31
61026;BME280;46911;32.650;-16.902;2024-01-25T06:32:24;102508.44;;;13.47;42.06
61026;BME280;46911;32.650;-16.902;2024-01-25T06:34:30;102489.63;;;13.29;42.48
61026;BME280;46911;32.650;-16.902;2024-01-25T06:36:36;102519.47;;;13.41;42.26
61026;BME280;46911;32.650;-16.902;2024-01-25T06:38:37;102523.19;;;13.38;42.55
61026;BME280;46911;32.650;-16.902;2024-01-25T06:40:38;102514.56;;;13.31;42.41
61026;BME280;46911;32.650;-16.902;2024-01-25T06:42:42;102517.63;;;13.23;41.85
61026;BME280;46911;32.650;-16.902;2024-01-25T06:44:46;102521.03;;;13.27;42.19
61026;BME280;46911;32.650;-16.902;2024-01-25T06:46:47;102532.50;;;13.29;42.62
61026;BME280;46911;32.650;-16.902;2024-01-25T06:48:50;102499.09;;;13.19;41.51
61026;BME280;46911;32.650;-16.902;2024-01-25T06:50:52;102511.97;;;13.30;41.32
61026;BME280;46911;32.650;-16.902;2024-01-25T06:52:56;102538.31;;;13.39;41.44
61026;BME280;46911;32.650;-16.902;2024-01-25T06:55:01;102531.50;;;13.32;42.12
61026;BME280;46911;32.650;-16.902;2024-01-25T06:57:04;102546.00;;;13.28;42.81
61026;BME280;46911;32.650;-16.902;2024-01-25T06:59:10;102522.09;;;13.05;42.98
61026;BME280;46911;32.650;-16.902;2024-01-25T07:01:11;102539.75;;;13.10;43.39
61026;BME280;46911;32.650;-16.902;2024-01-25T07:03:15;102548.09;;;13.03;43.25
61026;BME280;46911;32.650;-16.902;2024-01-25T07:05:19;102558.97;;;13.00;43.31
61026;BME280;46911;32.650;-16.902;2024-01-25T07:07:22;102560.06;;;12.96;43.48
61026;BME280;46911;32.650;-16.902;2024-01-25T07:09:25;102557.66;;;12.90;43.89
61026;BME280;46911;32.650;-16.902;2024-01-25T07:11:26;102558.47;;;12.92;43.41
61026;BME280;46911;32.650;-16.902;2024-01-25T07:13:27;102528.88;;;12.76;43.52
61026;BME280;46911;32.650;-16.902;2024-01-25T07:15:28;102513.78;;;12.56;43.78
61026;BME280;46911;32.650;-16.902;2024-01-25T07:17:29;102557.81;;;12.87;43.77
61026;BME280;46911;32.650;-16.902;2024-01-25T07:19:32;102539.72;;;12.73;43.79
61026;BME280;46911;32.650;-16.902;2024-01-25T07:21:33;102545.31;;;12.68;43.75
61026;BME280;46911;32.650;-16.902;2024-01-25T07:23:36;102532.19;;;12.62;43.63
61026;BME280;46911;32.650;-16.902;2024-01-25T07:25:40;102559.94;;;12.80;43.35
61026;BME280;46911;32.650;-16.902;2024-01-25T07:27:44;102566.78;;;12.86;42.37
61026;BME280;46911;32.650;-16.902;2024-01-25T07:29:46;102535.25;;;12.73;42.25
61026;BME280;46911;32.650;-16.902;2024-01-25T07:31:47;102561.28;;;12.89;42.03
61026;BME280;46911;32.650;-16.902;2024-01-25T07:33:50;102535.94;;;12.77;41.77
61026;BME280;46911;32.650;-16.902;2024-01-25T07:35:53;102524.53;;;12.73;41.26
61026;BME280;46911;32.650;-16.902;2024-01-25T07:37:54;102554.75;;;12.95;41.36
61026;BME280;46911;32.650;-16.902;2024-01-25T07:40:00;102554.75;;;12.95;41.50
61026;BME280;46911;32.650;-16.902;2024-01-25T07:42:01;102554.53;;;12.99;41.23
61026;BME280;46911;32.650;-16.902;2024-01-25T07:44:05;102533.00;;;12.83;41.77
61026;BME280;46911;32.650;-16.902;2024-01-25T07:46:09;102537.69;;;12.78;41.57
61026;BME280;46911;32.650;-16.902;2024-01-25T07:48:15;102545.84;;;12.94;41.96
61026;BME280;46911;32.650;-16.902;2024-01-25T07:50:18;102558.00;;;13.01;42.24
61026;BME280;46911;32.650;-16.902;2024-01-25T07:52:19;102533.16;;;12.80;42.42
61026;BME280;46911;32.650;-16.902;2024-01-25T07:54:24;102538.63;;;12.77;42.17
61026;BME280;46911;32.650;-16.902;2024-01-25T07:56:27;102564.84;;;12.89;42.04
61026;BME280;46911;32.650;-16.902;2024-01-25T07:58:32;102567.81;;;12.83;42.35
61026;BME280;46911;32.650;-16.902;2024-01-25T08:00:33;102556.00;;;12.87;41.63
61026;BME280;46911;32.650;-16.902;2024-01-25T08:02:38;102556.56;;;12.94;42.58
61026;BME280;46911;32.650;-16.902;2024-01-25T08:04:46;102548.19;;;12.83;42.82
61026;BME280;46911;32.650;-16.902;2024-01-25T08:06:47;102542.03;;;12.81;42.68
61026;BME280;46911;32.650;-16.902;2024-01-25T08:08:48;102544.56;;;12.84;42.00
61026;BME280;46911;32.650;-16.902;2024-01-25T08:10:51;102560.06;;;12.96;41.92
61026;BME280;46911;32.650;-16.902;2024-01-25T08:12:55;102554.03;;;12.91;41.74
61026;BME280;46911;32.650;-16.902;2024-01-25T08:14:57;102558.47;;;12.92;40.83
61026;BME280;46911;32.650;-16.902;2024-01-25T08:16:58;102568.66;;;13.03;40.65
61026;BME280;46911;32.650;-16.902;2024-01-25T08:19:02;102555.47;;;12.98;40.41
61026;BME280;46911;32.650;-16.902;2024-01-25T08:21:10;102584.13;;;13.15;40.66
61026;BME280;46911;32.650;-16.902;2024-01-25T08:23:11;102553.00;;;13.13;42.12
61026;BME280;46911;32.650;-16.902;2024-01-25T08:25:14;102576.50;;;13.25;41.40
61026;BME280;46911;32.650;-16.902;2024-01-25T08:27:17;102584.03;;;13.36;41.18
61026;BME280;46911;32.650;-16.902;2024-01-25T08:29:20;102582.25;;;13.54;40.36
61026;BME280;46911;32.650;-16.902;2024-01-25T08:31:21;102585.78;;;13.54;40.52
61026;BME280;46911;32.650;-16.902;2024-01-25T08:33:22;102563.94;;;13.45;40.47
61026;BME280;46911;32.650;-16.902;2024-01-25T08:35:25;102564.59;;;13.50;41.04
61026;BME280;46911;32.650;-16.902;2024-01-25T08:37:26;102592.44;;;13.65;40.41
61026;BME280;46911;32.650;-16.902;2024-01-25T08:39:32;102594.00;;;13.69;40.24
61026;BME280;46911;32.650;-16.902;2024-01-25T08:41:33;102601.75;;;13.75;39.79
61026;BME280;46911;32.650;-16.902;2024-01-25T08:43:34;102602.13;;;13.85;39.93
61026;BME280;46911;32.650;-16.902;2024-01-25T08:45:38;102598.34;;;13.89;40.38
61026;BME280;46911;32.650;-16.902;2024-01-25T08:47:41;102574.75;;;13.78;40.22
61026;BME280;46911;32.650;-16.902;2024-01-25T08:49:45;102586.03;;;13.85;40.41
61026;BME280;46911;32.650;-16.902;2024-01-25T08:51:52;102605.50;;;14.06;40.62
61026;BME280;46911;32.650;-16.902;2024-01-25T08:53:58;102603.53;;;14.10;40.83
61026;BME280;46911;32.650;-16.902;2024-01-25T08:56:00;102574.34;;;14.03;40.51
61026;BME280;46911;32.650;-16.902;2024-01-25T08:58:04;102584.09;;;14.22;40.57
61026;BME280;46911;32.650;-16.902;2024-01-25T09:00:05;102574.13;;;14.24;40.36
61026;BME280;46911;32.650;-16.902;2024-01-25T09:02:10;102564.09;;;14.28;40.19
61026;BME280;46911;32.650;-16.902;2024-01-25T09:04:14;102595.25;;;14.48;39.77
61026;BME280;46911;32.650;-16.902;2024-01-25T09:06:21;102581.31;;;14.57;40.04
61026;BME280;46911;32.650;-16.902;2024-01-25T09:08:22;102580.31;;;14.76;39.92
61026;BME280;46911;32.650;-16.902;2024-01-25T09:10:25;102578.84;;;14.86;39.79
61026;BME280;46911;32.650;-16.902;2024-01-25T09:12:30;102582.66;;;14.98;39.33
61026;BME280;46911;32.650;-16.902;2024-01-25T09:14:33;102581.59;;;15.16;39.15
61026;BME280;46911;32.650;-16.902;2024-01-25T09:16:35;102579.06;;;15.29;39.02
61026;BME280;46911;32.650;-16.902;2024-01-25T09:18:41;102570.72;;;15.34;39.02
61026;BME280;46911;32.650;-16.902;2024-01-25T09:20:46;102587.72;;;15.50;38.98
61026;BME280;46911;32.650;-16.902;2024-01-25T09:22:51;102563.75;;;15.46;38.69
61026;BME280;46911;32.650;-16.902;2024-01-25T09:24:57;102567.53;;;15.57;38.59
61026;BME280;46911;32.650;-16.902;2024-01-25T09:26:58;102567.69;;;15.70;39.14
61026;BME280;46911;32.650;-16.902;2024-01-25T09:29:06;102565.41;;;15.79;39.56
61026;BME280;46911;32.650;-16.902;2024-01-25T09:31:07;102598.16;;;16.01;39.85
61026;BME280;46911;32.650;-16.902;2024-01-25T09:33:11;102591.41;;;16.09;40.33
61026;BME280;46911;32.650;-16.902;2024-01-25T09:35:12;102604.03;;;16.22;40.84
61026;BME280;46911;32.650;-16.902;2024-01-25T09:37:13;102609.63;;;16.34;41.63
61026;BME280;46911;32.650;-16.902;2024-01-25T09:39:15;102588.06;;;16.34;41.77
61026;BME280;46911;32.650;-16.902;2024-01-25T09:41:16;102600.47;;;16.65;41.60
61026;BME280;46911;32.650;-16.902;2024-01-25T09:43:20;102604.69;;;16.84;41.07
61026;BME280;46911;32.650;-16.902;2024-01-25T09:45:21;102604.50;;;17.01;40.71
61026;BME280;46911;32.650;-16.902;2024-01-25T09:47:24;102588.00;;;17.06;40.28
61026;BME280;46911;32.650;-16.902;2024-01-25T09:49:29;102584.69;;;17.15;40.14
61026;BME280;46911;32.650;-16.902;2024-01-25T09:51:36;102587.06;;;17.34;39.90
61026;BME280;46911;32.650;-16.902;2024-01-25T09:53:42;102605.03;;;17.61;39.63
61026;BME280;46911;32.650;-16.902;2024-01-25T09:55:44;102606.25;;;17.83;39.36
61026;BME280;46911;32.650;-16.902;2024-01-25T09:57:49;102608.69;;;18.00;38.79
61026;BME280;46911;32.650;-16.902;2024-01-25T09:59:51;102617.13;;;18.21;38.17
61026;BME280;46911;32.650;-16.902;2024-01-25T10:01:54;102616.81;;;18.39;37.37
61026;BME280;46911;32.650;-16.902;2024-01-25T10:03:56;102598.00;;;18.37;34.48
61026;BME280;46911;32.650;-16.902;2024-01-25T10:06:00;102598.03;;;18.74;34.74
61026;BME280;46911;32.650;-16.902;2024-01-25T10:08:03;102612.47;;;19.72;34.49
61026;BME280;46911;32.650;-16.902;2024-01-25T10:10:05;102626.78;;;20.66;34.83
61026;BME280;46911;32.650;-16.902;2024-01-25T10:12:06;102623.84;;;21.68;33.95
61026;BME280;46911;32.650;-16.902;2024-01-25T10:14:07;102641.13;;;22.83;32.08
61026;BME280;46911;32.650;-16.902;2024-01-25T10:16:15;102632.09;;;24.01;29.66
61026;BME280;46911;32.650;-16.902;2024-01-25T10:18:21;102630.59;;;25.56;27.99
61026;BME280;46911;32.650;-16.902;2024-01-25T10:20:23;102640.78;;;27.20;26.53
61026;BME280;46911;32.650;-16.902;2024-01-25T10:22:28;102632.66;;;28.67;24.91
61026;BME280;46911;32.650;-16.902;2024-01-25T10:24:29;102620.94;;;29.97;23.23
61026;BME280;46911;32.650;-16.902;2024-01-25T10:26:33;102636.47;;;31.10;21.35